Time;durP1;ratioP1;P1;durP2;ratioP2;P2;SDS_P1;SDS_P2;PMS_P1;PMS_P2;Temp;Humidity;BMP_temperature;BMP_pressure;BME280_temperature;BME280_humidity;BME280_pressure;Samples;Min_cycle;Max_cycle;Signal;HPM_P1;HPM_P2
2023/04/21 00:01:39;;;;;;;7.93;5.83;;;13.10;99.90;;;;;;5087127;28;20457;-55
2023/04/21 00:04:08;;;;;;;9.07;4.57;;;13.10;99.90;;;;;;5093624;28;20419;-53
2023/04/21 00:06:35;;;;;;;10.00;6.03;;;13.10;99.90;;;;;;5097092;28;20497;-53
2023/04/21 00:09:04;;;;;;;8.07;5.70;;;13.10;99.90;;;;;;5092472;28;20538;-53
2023/04/21 00:11:31;;;;;;;9.93;5.23;;;13.10;99.90;;;;;;5095486;28;20469;-53
2023/04/21 00:13:58;;;;;;;9.80;5.87;;;13.10;99.90;;;;;;5088633;28;20446;-55
2023/04/21 00:16:24;;;;;;;16.07;6.37;;;13.00;99.90;;;;;;5091846;28;20466;-54
2023/04/21 00:18:51;;;;;;;14.23;4.73;;;13.00;99.90;;;;;;5089073;28;20494;-52
2023/04/21 00:21:18;;;;;;;15.67;5.80;;;13.00;99.90;;;;;;5096646;28;20454;-50
2023/04/21 00:23:46;;;;;;;9.03;5.30;;;12.90;99.90;;;;;;5096167;28;20470;-57
2023/04/21 00:26:14;;;;;;;9.60;5.17;;;12.90;99.90;;;;;;5094589;28;20512;-54
2023/04/21 00:28:41;;;;;;;11.63;5.60;;;12.80;99.90;;;;;;5097257;28;20465;-51
2023/04/21 00:31:08;;;;;;;12.87;5.77;;;12.80;99.90;;;;;;5096283;28;20449;-56
2023/04/21 00:33:34;;;;;;;8.77;5.57;;;12.80;99.90;;;;;;5096407;28;20516;-57
2023/04/21 00:36:01;;;;;;;8.67;5.70;;;12.80;99.90;;;;;;5097451;28;20446;-53
2023/04/21 00:38:28;;;;;;;9.60;5.27;;;12.70;99.90;;;;;;5096711;28;20446;-55
2023/04/21 00:40:55;;;;;;;13.10;6.53;;;12.70;99.90;;;;;;5092661;28;20438;-54
2023/04/21 00:43:24;;;;;;;10.23;5.97;;;12.60;99.90;;;;;;5094749;28;20434;-53
2023/04/21 00:45:51;;;;;;;12.10;5.77;;;12.60;99.90;;;;;;5095901;28;20473;-49
2023/04/21 00:48:18;;;;;;;16.30;6.03;;;12.60;99.90;;;;;;5096685;28;20439;-53
2023/04/21 00:50:45;;;;;;;11.63;6.63;;;12.60;99.90;;;;;;5095801;28;20458;-52
2023/04/21 00:53:14;;;;;;;7.53;5.30;;;12.60;99.90;;;;;;5084049;28;20545;-55
2023/04/21 00:55:41;;;;;;;8.07;5.73;;;12.50;99.90;;;;;;5093274;28;20449;-53
2023/04/21 00:58:08;;;;;;;16.40;6.53;;;12.50;99.90;;;;;;5096343;28;20422;-57
2023/04/21 01:00:38;;;;;;;8.03;5.50;;;12.50;99.90;;;;;;5096018;28;20490;-56
2023/04/21 01:03:06;;;;;;;13.50;5.30;;;12.40;99.90;;;;;;5095886;28;20447;-57
2023/04/21 01:05:33;;;;;;;9.87;5.37;;;12.40;99.90;;;;;;5096507;28;20482;-57
2023/04/21 01:08:02;;;;;;;10.23;6.07;;;12.40;99.90;;;;;;5096269;28;20488;-56
2023/04/21 01:10:28;;;;;;;17.50;7.00;;;12.40;99.90;;;;;;5095884;28;20602;-55
2023/04/21 01:12:55;;;;;;;13.50;6.30;;;12.30;99.90;;;;;;5095203;28;20466;-56
2023/04/21 01:15:22;;;;;;;12.33;5.80;;;12.40;99.90;;;;;;5095037;28;20477;-57
2023/04/21 01:17:52;;;;;;;18.00;7.87;;;12.30;99.90;;;;;;5097157;28;20516;-54
2023/04/21 01:20:19;;;;;;;8.10;5.77;;;12.30;99.90;;;;;;5095196;28;20494;-56
2023/04/21 01:22:50;;;;;;;7.83;6.53;;;12.30;99.90;;;;;;5097174;28;20447;-53
2023/04/21 01:25:17;;;;;;;11.67;6.50;;;12.20;99.90;;;;;;5095187;28;20526;-51
2023/04/21 01:27:44;;;;;;;7.30;5.50;;;12.20;99.90;;;;;;5096536;28;20448;-55
2023/04/21 01:30:11;;;;;;;9.40;6.67;;;12.20;99.90;;;;;;5095667;28;20466;-54
2023/04/21 01:32:38;;;;;;;11.50;6.83;;;12.10;99.90;;;;;;5095271;28;20477;-55
2023/04/21 01:35:06;;;;;;;11.27;6.90;;;12.10;99.90;;;;;;5095968;28;20462;-54
2023/04/21 01:37:33;;;;;;;13.97;7.60;;;12.00;99.90;;;;;;5096183;28;20433;-57
2023/04/21 01:40:04;;;;;;;12.87;7.00;;;12.00;99.90;;;;;;5095493;28;20427;-58
2023/04/21 01:42:32;;;;;;;18.10;7.60;;;12.00;99.90;;;;;;5095886;28;20435;-55
2023/04/21 01:45:00;;;;;;;9.27;7.13;;;12.00;99.90;;;;;;5096018;28;20442;-55
2023/04/21 01:47:27;;;;;;;10.30;7.37;;;12.00;99.90;;;;;;5095558;28;20503;-54
2023/04/21 01:49:54;;;;;;;10.03;6.00;;;11.90;99.90;;;;;;5096095;28;20445;-54
2023/04/21 01:52:21;;;;;;;11.80;7.67;;;11.90;99.90;;;;;;5095960;28;20462;-56
2023/04/21 01:54:48;;;;;;;11.33;6.93;;;11.90;99.90;;;;;;5096466;28;20505;-54
2023/04/21 01:57:17;;;;;;;11.40;7.73;;;11.90;99.90;;;;;;5095533;28;20489;-55
2023/04/21 01:59:45;;;;;;;19.10;8.27;;;11.90;99.90;;;;;;5095806;28;20419;-54
2023/04/21 02:02:12;;;;;;;11.53;9.30;;;11.90;99.90;;;;;;5095725;28;20458;-55
2023/04/21 02:04:39;;;;;;;20.53;11.27;;;11.90;99.90;;;;;;5095613;28;20462;-57
2023/04/21 02:07:06;;;;;;;24.03;12.83;;;11.90;99.90;;;;;;5095814;28;20539;-53
2023/04/21 02:09:33;;;;;;;20.87;14.10;;;11.80;99.90;;;;;;5095884;28;20446;-53
2023/04/21 02:12:00;;;;;;;32.70;15.80;;;11.80;99.90;;;;;;5094832;28;20449;-52
2023/04/21 02:14:29;;;;;;;24.20;13.87;;;11.80;99.90;;;;;;5095233;28;20453;-48
2023/04/21 02:16:56;;;;;;;29.10;16.50;;;11.80;99.90;;;;;;5096044;28;20796;-56
2023/04/21 02:19:22;;;;;;;23.10;14.57;;;11.80;99.90;;;;;;5098568;28;20502;-58
2023/04/21 02:21:49;;;;;;;20.60;13.50;;;11.80;99.90;;;;;;5098087;28;20442;-52
2023/04/21 02:24:16;;;;;;;24.10;14.17;;;11.80;99.90;;;;;;5098665;28;20470;-56
2023/04/21 02:26:43;;;;;;;18.43;12.27;;;11.80;99.90;;;;;;5098259;28;20521;-57
2023/04/21 02:29:10;;;;;;;22.30;13.43;;;11.70;99.90;;;;;;5099848;28;20457;-52
2023/04/21 02:31:38;;;;;;;17.80;11.30;;;11.70;99.90;;;;;;5099224;28;20482;-53
2023/04/21 02:34:05;;;;;;;21.43;12.23;;;11.70;99.90;;;;;;5099000;28;20450;-55
2023/04/21 02:36:32;;;;;;;15.03;10.47;;;11.60;99.90;;;;;;5098272;28;20473;-56
2023/04/21 02:38:59;;;;;;;12.40;9.13;;;11.60;99.90;;;;;;5098721;28;20486;-51
2023/04/21 02:41:26;;;;;;;16.70;10.87;;;11.60;99.90;;;;;;5098805;28;20448;-56
2023/04/21 02:43:52;;;;;;;12.07;7.37;;;11.70;99.90;;;;;;5098470;28;20457;-55
2023/04/21 02:46:19;;;;;;;14.00;9.30;;;11.60;99.90;;;;;;5098115;28;20469;-51
2023/04/21 02:48:47;;;;;;;13.20;8.60;;;11.60;99.90;;;;;;5100082;28;20453;-55
2023/04/21 02:51:15;;;;;;;13.83;8.70;;;11.50;99.90;;;;;;5098734;28;20446;-52
2023/04/21 02:53:42;;;;;;;13.90;7.53;;;11.50;99.90;;;;;;5097905;28;20464;-55
2023/04/21 02:56:09;;;;;;;11.30;7.50;;;11.50;99.90;;;;;;5097520;28;20456;-53
2023/04/21 02:58:36;;;;;;;12.90;6.93;;;11.40;99.90;;;;;;5098582;28;20457;-53
2023/04/21 03:01:07;;;;;;;12.47;7.90;;;11.40;99.90;;;;;;5098426;28;20493;-50
2023/04/21 03:03:34;;;;;;;12.70;7.20;;;11.40;99.90;;;;;;5097821;28;20406;-54
2023/04/21 03:06:04;;;;;;;16.03;7.33;;;11.40;99.90;;;;;;5097933;28;20505;-55
2023/04/21 03:08:31;;;;;;;12.07;7.33;;;11.40;99.90;;;;;;5098575;28;20513;-56
2023/04/21 03:10:59;;;;;;;10.73;7.77;;;11.40;99.90;;;;;;5096375;28;20498;-57
2023/04/21 03:13:26;;;;;;;12.27;7.07;;;11.40;99.90;;;;;;5095225;28;20477;-59
2023/04/21 03:15:53;;;;;;;8.93;6.60;;;11.30;99.90;;;;;;5092954;28;20470;-57
2023/04/21 03:18:19;;;;;;;9.13;7.00;;;11.30;99.90;;;;;;5089753;28;20429;-58
2023/04/21 03:20:46;;;;;;;13.13;7.83;;;11.30;99.90;;;;;;5097771;28;20457;-55
2023/04/21 03:23:16;;;;;;;13.60;7.73;;;11.30;99.90;;;;;;5095485;28;20450;-56
2023/04/21 03:25:43;;;;;;;11.90;7.07;;;11.20;99.90;;;;;;5098668;28;20448;-55
2023/04/21 03:28:09;;;;;;;13.93;8.70;;;11.20;99.90;;;;;;5097547;28;20497;-58
2023/04/21 03:30:36;;;;;;;16.40;7.43;;;11.10;99.90;;;;;;5096385;28;20450;-57
2023/04/21 03:33:03;;;;;;;16.03;6.50;;;11.10;99.90;;;;;;5098540;28;20520;-52
2023/04/21 03:35:30;;;;;;;10.67;7.47;;;11.10;99.90;;;;;;5098081;28;20438;-56
2023/04/21 03:37:57;;;;;;;11.20;6.93;;;11.10;99.90;;;;;;5097525;28;20430;-53
2023/04/21 03:40:25;;;;;;;11.43;8.00;;;11.10;99.90;;;;;;5097519;28;20446;-58
2023/04/21 03:42:52;;;;;;;22.63;8.10;;;11.10;99.90;;;;;;5086219;28;20506;-57
2023/04/21 03:45:21;;;;;;;11.43;8.60;;;11.10;99.90;;;;;;5082962;28;20439;-55
2023/04/21 03:47:48;;;;;;;9.63;6.90;;;11.10;99.90;;;;;;5085140;28;20486;-55
2023/04/21 03:50:15;;;;;;;13.40;8.33;;;11.10;99.90;;;;;;5084587;28;20474;-55
2023/04/21 03:52:41;;;;;;;10.27;7.93;;;11.00;99.90;;;;;;5081902;28;20442;-55
2023/04/21 03:55:11;;;;;;;9.60;7.70;;;11.00;99.90;;;;;;5081140;28;20502;-56
2023/04/21 03:57:40;;;;;;;12.07;7.50;;;11.00;99.90;;;;;;5080623;28;20525;-58
2023/04/21 04:00:09;;;;;;;13.00;7.97;;;11.10;99.90;;;;;;5085823;28;20458;-57
2023/04/21 04:02:36;;;;;;;13.20;8.53;;;11.10;99.90;;;;;;5085692;28;20500;-57
2023/04/21 04:05:04;;;;;;;12.30;9.20;;;11.10;99.90;;;;;;5079356;28;20478;-56
2023/04/21 04:07:31;;;;;;;15.00;8.53;;;11.00;99.90;;;;;;5080080;28;20577;-54
2023/04/21 04:09:58;;;;;;;9.73;7.47;;;11.00;99.90;;;;;;5081976;28;20525;-52
2023/04/21 04:12:25;;;;;;;9.57;7.90;;;11.00;99.90;;;;;;5081114;28;20496;-57
2023/04/21 04:14:53;;;;;;;15.53;8.63;;;11.00;99.90;;;;;;5085458;28;20510;-56
2023/04/21 04:17:20;;;;;;;13.10;8.87;;;11.00;99.90;;;;;;5083586;28;20525;-56
2023/04/21 04:19:46;;;;;;;12.53;8.90;;;11.00;99.90;;;;;;5082862;28;20548;-57
2023/04/21 04:22:13;;;;;;;14.77;7.70;;;11.00;99.90;;;;;;5082352;28;20510;-56
2023/04/21 04:24:40;;;;;;;13.20;8.60;;;11.00;99.90;;;;;;5082296;28;20501;-57
2023/04/21 04:27:08;;;;;;;10.00;8.10;;;11.00;99.90;;;;;;5080982;28;20489;-57
2023/04/21 04:29:35;;;;;;;11.17;9.03;;;11.00;99.90;;;;;;5080568;28;20478;-57
2023/04/21 04:32:05;;;;;;;14.37;8.67;;;11.00;99.90;;;;;;5082445;28;20537;-53
2023/04/21 04:34:36;;;;;;;13.23;8.30;;;11.00;99.90;;;;;;5081200;28;20528;-55
2023/04/21 04:37:03;;;;;;;21.80;7.73;;;11.00;99.90;;;;;;5081447;28;20443;-57
2023/04/21 04:39:31;;;;;;;13.03;8.67;;;11.00;99.90;;;;;;5080836;28;20442;-57
2023/04/21 04:41:58;;;;;;;15.23;9.63;;;11.00;99.90;;;;;;5081853;28;20443;-57
2023/04/21 04:44:25;;;;;;;13.53;8.30;;;11.00;99.90;;;;;;5080632;28;20453;-56
2023/04/21 04:46:53;;;;;;;16.17;8.90;;;11.00;99.90;;;;;;5080769;28;20970;-57
2023/04/21 04:49:21;;;;;;;12.10;8.00;;;11.00;99.90;;;;;;5082952;28;20783;-57
2023/04/21 04:51:48;;;;;;;13.50;7.57;;;11.00;99.90;;;;;;5079191;28;20530;-57
2023/04/21 04:54:14;;;;;;;12.57;8.47;;;11.00;99.90;;;;;;5083132;28;20481;-53
2023/04/21 04:56:41;;;;;;;9.90;7.40;;;11.10;99.90;;;;;;5083537;28;20494;-56
2023/04/21 04:59:08;;;;;;;11.33;8.10;;;11.00;99.90;;;;;;5080920;28;20491;-52
2023/04/21 05:01:36;;;;;;;11.73;8.10;;;11.10;99.90;;;;;;5079756;28;20474;-55
2023/04/21 05:04:03;;;;;;;14.30;9.30;;;11.10;99.90;;;;;;5082774;28;20442;-52
2023/04/21 05:06:32;;;;;;;12.33;8.37;;;11.10;99.90;;;;;;5081120;28;20451;-58
2023/04/21 05:08:59;;;;;;;15.07;8.67;;;11.10;99.90;;;;;;5080020;28;20557;-56
2023/04/21 05:11:25;;;;;;;16.40;9.13;;;11.10;99.90;;;;;;5078661;28;20756;-53
2023/04/21 05:13:52;;;;;;;16.17;10.73;;;11.20;99.90;;;;;;5080923;28;20466;-58
2023/04/21 05:16:19;;;;;;;9.00;7.67;;;11.20;99.90;;;;;;5081080;28;20906;-57
2023/04/21 05:18:49;;;;;;;14.33;8.30;;;11.30;99.90;;;;;;5082696;28;20469;-56
2023/04/21 05:21:23;;;;;;;10.10;7.93;;;11.30;99.90;;;;;;5081065;28;20480;-56
2023/04/21 05:23:51;;;;;;;11.43;8.17;;;11.30;99.90;;;;;;5080695;28;20431;-57
2023/04/21 05:26:18;;;;;;;13.10;8.13;;;11.40;99.90;;;;;;5079253;28;20561;-53
2023/04/21 05:28:44;;;;;;;10.87;8.23;;;11.40;99.90;;;;;;5079611;28;20521;-56
2023/04/21 05:31:11;;;;;;;13.33;8.33;;;11.50;99.90;;;;;;5080313;28;20558;-56
2023/04/21 05:33:38;;;;;;;14.70;8.40;;;11.50;99.90;;;;;;5080216;28;20527;-56
2023/04/21 05:36:07;;;;;;;13.10;9.70;;;11.50;99.90;;;;;;5080456;28;20474;-57
2023/04/21 05:38:36;;;;;;;13.27;9.00;;;11.50;99.90;;;;;;5080621;28;20434;-58
2023/04/21 05:41:05;;;;;;;9.80;8.20;;;11.60;99.90;;;;;;5080221;28;20453;-58
2023/04/21 05:43:33;;;;;;;16.67;8.93;;;11.60;99.90;;;;;;5080541;28;20457;-56
2023/04/21 05:46:00;;;;;;;10.70;7.13;;;11.70;99.90;;;;;;5080689;28;20442;-57
2023/04/21 05:48:27;;;;;;;18.00;7.67;;;11.70;99.90;;;;;;5080966;28;20518;-57
2023/04/21 05:50:54;;;;;;;15.30;9.40;;;11.80;99.90;;;;;;5080667;28;20461;-53
2023/04/21 05:53:22;;;;;;;10.97;7.80;;;11.80;99.90;;;;;;5082765;28;20505;-56
2023/04/21 05:55:49;;;;;;;12.73;9.67;;;11.90;99.90;;;;;;5077027;28;20446;-55
2023/04/21 05:58:17;;;;;;;13.33;9.60;;;11.90;99.90;;;;;;5076132;28;20442;-55
2023/04/21 06:00:45;;;;;;;11.90;8.53;;;11.90;99.90;;;;;;5076590;28;20572;-56
2023/04/21 06:03:12;;;;;;;14.30;9.03;;;12.00;99.90;;;;;;5076116;28;20882;-54
2023/04/21 06:05:38;;;;;;;20.17;8.30;;;12.00;99.90;;;;;;5076366;28;20827;-56
2023/04/21 06:08:05;;;;;;;15.67;9.33;;;12.10;99.90;;;;;;5088395;28;20502;-55
2023/04/21 06:10:32;;;;;;;12.73;9.67;;;12.20;99.90;;;;;;5077972;28;20493;-57
2023/04/21 06:12:59;;;;;;;14.63;8.77;;;12.20;99.90;;;;;;5076197;28;20453;-56
2023/04/21 06:15:27;;;;;;;13.37;9.70;;;12.30;99.90;;;;;;5075887;28;20531;-57
2023/04/21 06:17:54;;;;;;;14.13;8.00;;;12.30;99.90;;;;;;5075909;28;20466;-58
2023/04/21 06:20:21;;;;;;;10.83;8.30;;;12.40;99.90;;;;;;5080869;28;20450;-56
2023/04/21 06:22:49;;;;;;;12.23;8.27;;;12.40;99.90;;;;;;5075649;28;20481;-54
2023/04/21 06:25:16;;;;;;;14.47;8.63;;;12.50;99.90;;;;;;5085871;28;20492;-50
2023/04/21 06:27:44;;;;;;;16.60;8.47;;;12.60;99.90;;;;;;5080600;28;20572;-51
2023/04/21 06:30:11;;;;;;;10.70;8.17;;;12.60;99.90;;;;;;5076716;28;20532;-51
2023/04/21 06:32:40;;;;;;;15.27;8.80;;;12.70;99.90;;;;;;5082410;28;20553;-52
2023/04/21 06:35:07;;;;;;;12.90;8.53;;;12.80;99.90;;;;;;5076095;28;20837;-54
2023/04/21 06:37:34;;;;;;;17.33;8.90;;;12.90;99.90;;;;;;5075262;28;20473;-51
2023/04/21 06:40:01;;;;;;;18.73;8.40;;;12.90;99.90;;;;;;5075305;28;20452;-54
2023/04/21 06:42:27;;;;;;;14.50;9.80;;;13.00;99.90;;;;;;5075228;28;20442;-55
2023/04/21 06:44:55;;;;;;;17.40;8.73;;;13.10;99.90;;;;;;5075366;28;20520;-57
2023/04/21 06:47:22;;;;;;;11.70;7.83;;;13.20;99.90;;;;;;5075204;28;20540;-58
2023/04/21 06:49:50;;;;;;;10.97;8.60;;;13.30;99.90;;;;;;5075029;28;20485;-56
2023/04/21 06:52:17;;;;;;;14.90;9.13;;;13.30;99.90;;;;;;5075217;28;20526;-58
2023/04/21 06:54:44;;;;;;;14.87;8.13;;;13.40;99.90;;;;;;5075643;28;20550;-54
2023/04/21 06:57:11;;;;;;;15.93;9.70;;;13.40;99.90;;;;;;5075123;28;20453;-57
2023/04/21 06:59:37;;;;;;;12.43;8.63;;;13.50;99.90;;;;;;5074488;28;20490;-56
2023/04/21 07:02:04;;;;;;;11.00;8.40;;;13.60;99.90;;;;;;5074808;28;20807;-56
2023/04/21 07:04:31;;;;;;;14.63;10.20;;;13.70;99.90;;;;;;5075310;28;20446;-53
2023/04/21 07:06:59;;;;;;;15.67;8.77;;;13.80;99.90;;;;;;5078131;28;21026;-57
2023/04/21 07:09:27;;;;;;;13.27;8.70;;;13.90;99.90;;;;;;5078243;28;20450;-58
2023/04/21 07:11:54;;;;;;;11.77;9.03;;;13.90;99.90;;;;;;5078305;28;20470;-57
2023/04/21 07:14:21;;;;;;;13.67;9.20;;;14.00;99.90;;;;;;5078423;28;20537;-55
2023/04/21 07:16:48;;;;;;;17.77;9.20;;;14.10;99.90;;;;;;5078083;28;20505;-57
2023/04/21 07:19:15;;;;;;;14.00;9.80;;;14.20;99.90;;;;;;5078156;28;20575;-54
2023/04/21 07:21:42;;;;;;;14.67;8.80;;;14.20;99.90;;;;;;5082674;28;20446;-57
2023/04/21 07:24:10;;;;;;;12.17;8.53;;;14.30;99.90;;;;;;5080492;28;20513;-57
2023/04/21 07:26:37;;;;;;;13.20;9.80;;;14.40;99.90;;;;;;5077345;28;20533;-54
2023/04/21 07:29:04;;;;;;;13.70;9.17;;;14.50;99.90;;;;;;5077625;28;20587;-57
2023/04/21 07:31:31;;;;;;;25.17;9.87;;;14.60;99.90;;;;;;5077497;28;20474;-57
2023/04/21 07:33:57;;;;;;;14.07;9.10;;;14.70;99.90;;;;;;5077449;28;20868;-53
2023/04/21 07:36:27;;;;;;;11.87;8.57;;;14.80;99.90;;;;;;5071926;28;20502;-55
2023/04/21 07:38:53;;;;;;;12.80;7.77;;;14.90;99.90;;;;;;5076822;28;20465;-57
2023/04/21 07:41:22;;;;;;;10.50;8.80;;;15.00;99.90;;;;;;5077278;28;20784;-57
2023/04/21 07:43:49;;;;;;;17.03;10.43;;;15.10;99.90;;;;;;5077182;28;20488;-57
2023/04/21 07:46:16;;;;;;;12.63;9.73;;;15.20;99.90;;;;;;5080000;28;20483;-56
2023/04/21 07:48:44;;;;;;;30.57;18.60;;;15.30;99.90;;;;;;5089037;28;20478;-55
2023/04/21 07:51:10;;;;;;;21.77;13.60;;;15.50;99.90;;;;;;5089515;28;20520;-52
2023/04/21 07:53:40;;;;;;;15.70;10.67;;;15.70;99.90;;;;;;5095562;28;20438;-59
2023/04/21 07:56:07;;;;;;;12.97;9.00;;;16.00;99.90;;;;;;5095677;28;20462;-57
2023/04/21 07:58:35;;;;;;;12.53;8.67;;;17.10;99.90;;;;;;5093041;28;20453;-58
2023/04/21 08:01:02;;;;;;;20.33;8.50;;;18.80;99.90;;;;;;5087781;28;20454;-57
2023/04/21 08:03:29;;;;;;;14.07;8.73;;;20.70;99.90;;;;;;5060802;28;20896;-54
2023/04/21 08:05:56;;;;;;;9.40;8.50;;;22.50;92.80;;;;;;5076304;28;20489;-57
2023/04/21 08:08:23;;;;;;;10.43;8.23;;;24.30;80.10;;;;;;5080064;28;20510;-60
2023/04/21 08:10:50;;;;;;;9.60;7.93;;;25.60;68.60;;;;;;5076214;28;20447;-58
2023/04/21 08:13:19;;;;;;;14.10;9.27;;;26.70;60.60;;;;;;5076117;28;20561;-59
2023/04/21 08:15:47;;;;;;;11.30;10.20;;;27.80;56.60;;;;;;5077128;28;20978;-60
2023/04/21 08:18:15;;;;;;;15.40;9.20;;;28.60;52.80;;;;;;5082046;28;20470;-61
2023/04/21 08:20:42;;;;;;;15.80;9.00;;;29.40;49.50;;;;;;5076085;28;20450;-60
2023/04/21 08:23:09;;;;;;;32.83;12.03;;;29.90;47.50;;;;;;5075228;28;20653;-59
2023/04/21 08:25:36;;;;;;;17.47;10.73;;;30.10;46.40;;;;;;5075354;28;20813;-59
2023/04/21 08:28:03;;;;;;;11.10;9.60;;;30.50;44.90;;;;;;5079363;28;20573;-59
2023/04/21 08:30:30;;;;;;;15.33;10.30;;;30.70;43.80;;;;;;5088094;28;20481;-59
2023/04/21 08:32:58;;;;;;;14.77;9.37;;;30.90;43.40;;;;;;5090133;28;20467;-51
2023/04/21 08:35:25;;;;;;;14.17;8.33;;;31.00;42.80;;;;;;5090302;28;20439;-58
2023/04/21 08:37:55;;;;;;;16.00;10.00;;;31.00;42.60;;;;;;5091036;28;20466;-58
2023/04/21 08:40:29;;;;;;;9.60;8.33;;;31.10;41.90;;;;;;5088976;28;20485;-58
2023/04/21 08:42:56;;;;;;;12.90;9.10;;;31.20;42.10;;;;;;5094725;28;20458;-58
2023/04/21 08:45:23;;;;;;;11.10;8.30;;;31.10;41.50;;;;;;5094151;28;20446;-58
2023/04/21 08:47:51;;;;;;;12.17;8.00;;;31.00;41.60;;;;;;5091070;28;20467;-58
2023/04/21 08:50:20;;;;;;;12.97;8.93;;;30.80;41.50;;;;;;5085335;28;20449;-58
2023/04/21 08:52:47;;;;;;;16.53;10.37;;;30.60;41.60;;;;;;5089579;28;20466;-59
2023/04/21 08:55:16;;;;;;;8.80;7.90;;;30.50;41.50;;;;;;5094994;28;20466;-59
2023/04/21 08:57:43;;;;;;;13.10;8.50;;;30.60;41.60;;;;;;5092069;28;20470;-58
2023/04/21 09:00:11;;;;;;;10.37;8.43;;;30.60;41.40;;;;;;5089768;28;20423;-58
2023/04/21 09:02:55;;;;;;;10.90;9.20;;;30.60;41.00;;;;;;5093438;28;20476;-58
2023/04/21 09:05:25;;;;;;;8.77;7.87;;;30.40;41.20;;;;;;5090054;28;20422;-56
2023/04/21 09:08:07;;;;;;;11.87;8.97;;;30.40;42.00;;;;;;5088015;28;20474;-55
2023/04/21 09:10:34;;;;;;;10.67;7.90;;;30.50;40.70;;;;;;5092628;28;20457;-60
2023/04/21 09:13:07;;;;;;;9.17;8.23;;;30.60;40.90;;;;;;5078976;28;20454;-59
2023/04/21 09:15:39;;;;;;;10.27;9.07;;;30.60;40.60;;;;;;5087846;28;20510;-58
2023/04/21 09:18:11;;;;;;;10.70;8.43;;;30.50;40.70;;;;;;5085338;28;20442;-57
2023/04/21 09:20:39;;;;;;;9.90;8.03;;;30.40;41.70;;;;;;5082875;28;20521;-57
2023/04/21 09:23:06;;;;;;;9.30;8.20;;;30.30;41.10;;;;;;5079060;28;20478;-57
2023/04/21 09:25:34;;;;;;;8.80;7.73;;;30.30;41.30;;;;;;5079773;28;20500;-59
2023/04/21 09:28:01;;;;;;;11.83;7.30;;;30.20;41.50;;;;;;5090105;28;20466;-57
2023/04/21 09:30:28;;;;;;;8.23;7.43;;;30.40;41.40;;;;;;5086485;28;20468;-59
2023/04/21 09:32:57;;;;;;;9.03;8.23;;;30.50;41.00;;;;;;5076191;28;20450;-60
2023/04/21 09:35:28;;;;;;;10.63;7.70;;;30.40;41.00;;;;;;5075836;28;20466;-58
2023/04/21 09:37:56;;;;;;;11.97;8.07;;;30.40;41.10;;;;;;5076378;28;20918;-60
2023/04/21 09:40:23;;;;;;;11.67;10.10;;;30.50;40.30;;;;;;5075622;28;20478;-59
2023/04/21 09:42:50;;;;;;;8.90;7.93;;;30.20;40.60;;;;;;5075073;28;20493;-59
2023/04/21 09:45:19;;;;;;;9.57;8.67;;;30.40;41.00;;;;;;5074051;28;20519;-59
2023/04/21 09:47:51;;;;;;;11.87;8.00;;;30.50;41.30;;;;;;5073929;28;20447;-61
2023/04/21 09:50:20;;;;;;;8.63;7.67;;;30.40;41.40;;;;;;5074948;28;20470;-60
2023/04/21 09:52:50;;;;;;;11.00;8.07;;;30.50;40.90;;;;;;5078521;28;20949;-59
2023/04/21 09:55:22;;;;;;;9.30;8.30;;;30.60;40.90;;;;;;5075742;28;20556;-58
2023/04/21 09:57:51;;;;;;;9.30;7.50;;;30.60;40.40;;;;;;5083657;28;20501;-60
2023/04/21 10:00:21;;;;;;;8.57;7.67;;;30.50;40.70;;;;;;5075421;28;20496;-59
2023/04/21 10:02:49;;;;;;;9.27;7.43;;;30.40;40.70;;;;;;5076765;28;20502;-59
2023/04/21 10:05:16;;;;;;;8.93;8.00;;;30.40;40.70;;;;;;5088310;28;20454;-55
2023/04/21 10:07:45;;;;;;;8.27;7.47;;;30.20;40.40;;;;;;5089254;28;20462;-56
2023/04/21 10:10:20;;;;;;;8.47;7.33;;;30.20;40.60;;;;;;5088446;28;20462;-59
2023/04/21 10:12:47;;;;;;;9.20;7.90;;;30.20;40.70;;;;;;5078229;28;20457;-58
2023/04/21 10:15:30;;;;;;;8.60;7.70;;;30.20;41.00;;;;;;5078136;28;20478;-60
2023/04/21 10:18:22;;;;;;;9.13;7.33;;;30.10;40.70;;;;;;5080794;28;20450;-60
2023/04/21 10:20:56;;;;;;;8.30;7.50;;;30.10;41.30;;;;;;5076871;28;20501;-61
2023/04/21 10:23:30;;;;;;;9.83;8.90;;;30.10;41.50;;;;;;5077792;28;20430;-62
2023/04/21 10:26:11;;;;;;;7.90;7.10;;;30.00;40.70;;;;;;5078456;28;20508;-60
2023/04/21 10:28:52;;;;;;;7.53;6.70;;;30.00;40.20;;;;;;5077593;28;20466;-53
2023/04/21 10:31:24;;;;;;;10.37;7.70;;;29.70;41.10;;;;;;5078464;28;20576;-60
2023/04/21 10:34:27;;;;;;;10.60;7.50;;;29.60;40.90;;;;;;5078702;28;20557;-61
2023/04/21 10:37:15;;;;;;;9.77;7.07;;;29.40;41.10;;;;;;5081995;28;20763;-61
2023/04/21 10:39:53;;;;;;;14.27;8.33;;;28.90;41.40;;;;;;5081366;28;20532;-60
2023/04/21 10:42:36;;;;;;;8.70;6.63;;;28.60;42.30;;;;;;5082393;28;20507;-62
2023/04/21 10:45:11;;;;;;;8.90;6.40;;;28.40;42.30;;;;;;5092942;28;20448;-61
2023/04/21 10:47:44;;;;;;;8.00;6.63;;;28.30;42.80;;;;;;5098537;28;20434;-50
2023/04/21 10:50:13;;;;;;;8.70;7.90;;;28.00;42.40;;;;;;5097242;28;20509;-57
2023/04/21 10:52:43;;;;;;;7.90;7.10;;;27.80;42.90;;;;;;5097349;28;20506;-56
2023/04/21 10:55:11;;;;;;;9.07;6.80;;;27.40;43.10;;;;;;5098028;28;20415;-57
2023/04/21 10:57:42;;;;;;;9.53;7.60;;;27.00;43.70;;;;;;5097765;28;20444;-56
2023/04/21 11:00:11;;;;;;;7.53;6.73;;;26.80;44.00;;;;;;5097500;28;20423;-60
2023/04/21 11:02:38;;;;;;;7.70;6.40;;;26.40;45.10;;;;;;5092418;28;20523;-59
2023/04/21 11:05:06;;;;;;;12.40;8.60;;;26.20;45.80;;;;;;5095513;28;20469;-56
2023/04/21 11:07:33;;;;;;;15.77;9.07;;;26.00;45.80;;;;;;5092934;28;20538;-59
2023/04/21 11:10:01;;;;;;;9.07;6.90;;;25.90;46.20;;;;;;5093653;28;20465;-58
2023/04/21 11:12:29;;;;;;;7.90;7.03;;;25.60;46.40;;;;;;5097546;28;20462;-58
2023/04/21 11:14:58;;;;;;;8.63;6.80;;;25.50;46.60;;;;;;5097376;28;20486;-58
2023/04/21 11:17:25;;;;;;;10.87;7.30;;;25.40;47.00;;;;;;5095475;28;20502;-59
2023/04/21 11:19:53;;;;;;;8.87;7.60;;;25.10;47.50;;;;;;5094273;28;20442;-60
2023/04/21 11:22:22;;;;;;;9.80;5.97;;;25.00;48.20;;;;;;5095335;28;20477;-51
2023/04/21 11:24:53;;;;;;;9.00;6.40;;;25.10;47.30;;;;;;5097423;28;20550;-55
2023/04/21 11:27:21;;;;;;;7.90;7.23;;;25.00;47.50;;;;;;5097770;28;20467;-58
2023/04/21 11:29:49;;;;;;;8.43;7.00;;;25.00;47.50;;;;;;5092869;28;20458;-54
2023/04/21 11:32:17;;;;;;;12.30;7.00;;;24.90;47.80;;;;;;5097309;28;20473;-58
2023/04/21 11:34:45;;;;;;;7.10;6.40;;;24.70;47.60;;;;;;5092402;28;20504;-62
2023/04/21 11:37:16;;;;;;;9.40;7.07;;;24.60;47.10;;;;;;5088798;28;20504;-57
2023/04/21 11:39:43;;;;;;;8.23;6.30;;;24.60;47.60;;;;;;5095269;28;20435;-56
2023/04/21 11:42:11;;;;;;;7.10;6.00;;;24.60;47.70;;;;;;5091597;28;20470;-60
2023/04/21 11:44:39;;;;;;;7.73;6.90;;;24.50;48.00;;;;;;5093501;28;20453;-59
2023/04/21 11:47:13;;;;;;;10.30;7.10;;;24.30;48.10;;;;;;5096149;28;20452;-60
2023/04/21 11:49:46;;;;;;;6.30;5.70;;;24.10;47.90;;;;;;5093020;28;20534;-57
2023/04/21 11:52:23;;;;;;;11.70;5.97;;;23.90;48.70;;;;;;5086907;28;20433;-61
2023/04/21 11:54:58;;;;;;;7.13;6.07;;;23.90;48.50;;;;;;5080875;28;20426;-59
2023/04/21 11:57:26;;;;;;;11.30;7.07;;;23.80;47.70;;;;;;5083220;28;20490;-60
2023/04/21 11:59:53;;;;;;;7.30;6.53;;;23.70;47.50;;;;;;5088183;28;20491;-58
2023/04/21 12:02:27;;;;;;;8.53;7.00;;;23.80;47.80;;;;;;5096390;28;20502;-57
2023/04/21 12:05:03;;;;;;;12.30;7.10;;;23.80;47.80;;;;;;5096709;28;20414;-55
2023/04/21 12:07:31;;;;;;;8.10;6.83;;;23.80;48.50;;;;;;5095534;28;20449;-58
2023/04/21 12:09:59;;;;;;;7.50;6.70;;;23.80;47.80;;;;;;5097279;28;20474;-57
2023/04/21 12:12:26;;;;;;;14.60;6.53;;;23.70;49.40;;;;;;5095856;28;20451;-55
2023/04/21 12:14:53;;;;;;;9.47;6.97;;;23.70;49.60;;;;;;5096035;28;20457;-60
2023/04/21 12:17:20;;;;;;;7.57;5.90;;;23.80;48.60;;;;;;5096614;28;20494;-59
2023/04/21 12:19:47;;;;;;;8.30;6.27;;;23.80;48.90;;;;;;5097328;28;20435;-58
2023/04/21 12:22:18;;;;;;;9.60;7.47;;;23.80;49.50;;;;;;5095466;28;20442;-59
2023/04/21 12:24:45;;;;;;;12.77;6.97;;;23.80;47.60;;;;;;5096298;28;20437;-60
2023/04/21 12:27:12;;;;;;;10.50;6.03;;;23.80;49.00;;;;;;5096146;28;20423;-55
2023/04/21 12:29:40;;;;;;;9.63;6.20;;;23.80;48.30;;;;;;5096144;28;20508;-60
2023/04/21 12:32:07;;;;;;;9.20;6.37;;;23.80;49.80;;;;;;5094858;28;20472;-61
2023/04/21 12:34:35;;;;;;;7.17;6.43;;;23.80;49.10;;;;;;5091791;28;20474;-60
2023/04/21 12:37:02;;;;;;;10.93;6.27;;;23.80;49.50;;;;;;5094782;28;20467;-59
2023/04/21 12:39:30;;;;;;;7.07;6.33;;;23.80;50.10;;;;;;5096031;28;20450;-61
2023/04/21 12:41:57;;;;;;;6.90;6.30;;;23.90;49.10;;;;;;5092645;28;20443;-59
2023/04/21 12:44:24;;;;;;;8.70;5.67;;;24.00;49.40;;;;;;5094328;28;20474;-58